Time;durP1;ratioP1;P1;durP2;ratioP2;P2;SDS_P1;SDS_P2;PMS_P1;PMS_P2;Temp;Humidity;BMP_temperature;BMP_pressure;BME280_temperature;BME280_humidity;BME280_pressure;Samples;Min_cycle;Max_cycle;Signal;HPM_P1;HPM_P2
2023/04/16 00:00:42;;;;;;;17.97;15.97;;;;;;;;;;5050164;28;20238;-54
2023/04/16 00:03:08;;;;;;;20.80;18.60;;;;;;;;;;5044300;28;20239;-51
2023/04/16 00:05:35;;;;;;;18.43;16.50;;;;;;;;;;5038193;28;20617;-53
2023/04/16 00:08:01;;;;;;;18.60;16.80;;;;;;;;;;5042414;28;20231;-51
2023/04/16 00:10:28;;;;;;;19.43;17.43;;;;;;;;;;5046882;28;20340;-52
2023/04/16 00:12:54;;;;;;;20.20;18.10;;;;;;;;;;5041305;28;21263;-52
2023/04/16 00:15:22;;;;;;;20.53;18.50;;;;;;;;;;5039501;28;20228;-52
2023/04/16 00:17:48;;;;;;;18.33;16.43;;;;;;;;;;5036795;28;20251;-55
2023/04/16 00:20:15;;;;;;;20.70;17.73;;;;;;;;;;5040654;28;20235;-52
2023/04/16 00:22:41;;;;;;;19.60;17.53;;;;;;;;;;5046387;28;20328;-55
2023/04/16 00:25:08;;;;;;;22.10;18.57;;;;;;;;;;5047225;28;20726;-51
2023/04/16 00:27:34;;;;;;;21.10;18.87;;;;;;;;;;5046418;28;20240;-53
2023/04/16 00:30:01;;;;;;;22.53;20.23;;;;;;;;;;5045208;28;20724;-51
2023/04/16 00:32:28;;;;;;;20.67;18.67;;;;;;;;;;5045544;28;20236;-54
2023/04/16 00:34:55;;;;;;;19.93;17.93;;;;;;;;;;5038592;28;20238;-53
2023/04/16 00:37:21;;;;;;;20.10;18.17;;;;;;;;;;5045664;28;20805;-54
2023/04/16 00:39:47;;;;;;;20.70;17.73;;;;;;;;;;5046923;28;20235;-53
2023/04/16 00:42:14;;;;;;;20.60;18.43;;;;;;;;;;5043027;28;20742;-53
2023/04/16 00:44:40;;;;;;;20.03;17.67;;;;;;;;;;5047834;28;20235;-53
2023/04/16 00:47:07;;;;;;;21.00;18.87;;;;;;;;;;5041689;28;20240;-53
2023/04/16 00:49:35;;;;;;;18.37;16.47;;;;;;;;;;5029373;28;20231;-53
2023/04/16 00:52:02;;;;;;;18.73;16.83;;;;;;;;;;5031171;28;20231;-53
2023/04/16 00:54:29;;;;;;;17.93;16.13;;;;;;;;;;5043245;28;20227;-53
2023/04/16 00:56:57;;;;;;;21.07;18.80;;;;;;;;;;5042355;28;20232;-53
2023/04/16 00:59:23;;;;;;;20.60;18.33;;;;;;;;;;5040072;28;20231;-53
2023/04/16 01:01:49;;;;;;;18.37;16.47;;;;;;;;;;5042369;28;20238;-53
2023/04/16 01:04:16;;;;;;;19.07;17.07;;;;;;;;;;5047373;28;20255;-53
2023/04/16 01:06:43;;;;;;;19.60;17.47;;;;;;;;;;5046432;28;20959;-53
2023/04/16 01:09:10;;;;;;;17.97;16.17;;;;;;;;;;5044176;28;20228;-53
2023/04/16 01:11:37;;;;;;;18.70;16.73;;;;;;;;;;5039023;28;20224;-53
2023/04/16 01:14:03;;;;;;;19.53;17.53;;;;;;;;;;5045575;28;20706;-52
2023/04/16 01:16:30;;;;;;;17.80;16.00;;;;;;;;;;5041772;28;20322;-53
2023/04/16 01:18:56;;;;;;;20.67;18.07;;;;;;;;;;5047150;28;20309;-52
2023/04/16 01:21:24;;;;;;;18.13;16.27;;;;;;;;;;5057975;28;20231;-52
2023/04/16 01:23:51;;;;;;;19.60;17.30;;;;;;;;;;5044810;28;20228;-53
2023/04/16 01:26:18;;;;;;;20.03;17.73;;;;;;;;;;5037921;28;20317;-52
2023/04/16 01:28:45;;;;;;;19.07;17.17;;;;;;;;;;5041765;28;20310;-52
2023/04/16 01:31:11;;;;;;;19.07;17.07;;;;;;;;;;5048976;28;20551;-53
2023/04/16 01:33:37;;;;;;;20.63;18.33;;;;;;;;;;5054342;28;20326;-52
2023/04/16 01:36:04;;;;;;;19.07;17.07;;;;;;;;;;5040503;28;20242;-52
2023/04/16 01:38:32;;;;;;;17.43;15.70;;;;;;;;;;5044260;28;20267;-53
2023/04/16 01:40:59;;;;;;;18.53;16.63;;;;;;;;;;5049395;28;20231;-53
2023/04/16 01:43:25;;;;;;;20.47;17.43;;;;;;;;;;5033145;28;20903;-53
2023/04/16 01:45:52;;;;;;;17.90;16.17;;;;;;;;;;5040057;28;20736;-53
2023/04/16 01:48:18;;;;;;;17.43;15.53;;;;;;;;;;5043676;28;20282;-52
2023/04/16 01:50:45;;;;;;;19.30;17.07;;;;;;;;;;5038011;28;20236;-52
2023/04/16 01:53:11;;;;;;;16.63;14.97;;;;;;;;;;5034890;28;20235;-53
2023/04/16 01:55:39;;;;;;;19.33;17.33;;;;;;;;;;5032499;28;20237;-52
2023/04/16 01:58:09;;;;;;;18.13;16.20;;;;;;;;;;5042225;28;20231;-53
2023/04/16 02:00:35;;;;;;;16.77;15.00;;;;;;;;;;5032430;28;20744;-52
2023/04/16 02:03:02;;;;;;;17.90;16.07;;;;;;;;;;5035557;28;20236;-52
2023/04/16 02:05:29;;;;;;;17.10;15.43;;;;;;;;;;5042118;28;20227;-52
2023/04/16 02:07:56;;;;;;;16.47;14.77;;;;;;;;;;5043479;28;20240;-52
2023/04/16 02:10:23;;;;;;;16.23;14.53;;;;;;;;;;5046492;28;20801;-52
2023/04/16 02:12:51;;;;;;;20.07;16.10;;;;;;;;;;5051537;28;20243;-52
2023/04/16 02:15:18;;;;;;;17.20;15.40;;;;;;;;;;5039691;28;20240;-52
2023/04/16 02:17:47;;;;;;;16.97;14.63;;;;;;;;;;5030690;28;20266;-52
2023/04/16 02:20:14;;;;;;;17.70;16.03;;;;;;;;;;5036303;28;20327;-52
2023/04/16 02:22:41;;;;;;;18.07;14.67;;;;;;;;;;5036166;28;20247;-52
2023/04/16 02:25:08;;;;;;;21.67;14.90;;;;;;;;;;5034617;28;20632;-52
2023/04/16 02:27:37;;;;;;;18.10;15.93;;;;;;;;;;5013428;28;20702;-52
2023/04/16 02:30:06;;;;;;;17.83;15.93;;;;;;;;;;5031546;28;20233;-52
2023/04/16 02:32:33;;;;;;;18.40;16.43;;;;;;;;;;5041371;28;20228;-52
2023/04/16 02:35:02;;;;;;;17.77;15.93;;;;;;;;;;5032579;28;20852;-52
2023/04/16 02:37:29;;;;;;;18.00;16.20;;;;;;;;;;5040959;28;20235;-52
2023/04/16 02:39:56;;;;;;;17.30;15.50;;;;;;;;;;5037348;28;20231;-52
2023/04/16 02:42:23;;;;;;;21.67;16.03;;;;;;;;;;5040064;28;20227;-52
2023/04/16 02:44:50;;;;;;;18.10;16.20;;;;;;;;;;5035106;28;20232;-52
2023/04/16 02:47:18;;;;;;;20.87;18.60;;;;;;;;;;5031113;28;20263;-52
2023/04/16 02:49:45;;;;;;;19.33;17.03;;;;;;;;;;5043901;28;20400;-52
2023/04/16 02:52:12;;;;;;;20.27;17.63;;;;;;;;;;5039182;28;20228;-52
2023/04/16 02:54:38;;;;;;;18.57;16.80;;;;;;;;;;5055393;28;20310;-52
2023/04/16 02:57:05;;;;;;;20.97;17.23;;;;;;;;;;5046156;28;20259;-52
2023/04/16 02:59:32;;;;;;;19.43;17.33;;;;;;;;;;5054274;28;20265;-52
2023/04/16 03:01:59;;;;;;;21.03;18.63;;;;;;;;;;5047385;28;20242;-52
2023/04/16 03:04:27;;;;;;;20.43;17.93;;;;;;;;;;5059256;28;20227;-52
2023/04/16 03:06:54;;;;;;;24.53;19.23;;;;;;;;;;5052443;28;20247;-52
2023/04/16 03:09:21;;;;;;;19.57;17.57;;;;;;;;;;5048281;28;20231;-52
2023/04/16 03:11:48;;;;;;;22.87;18.90;;;;;;;;;;5053541;28;20240;-52
2023/04/16 03:14:15;;;;;;;21.03;16.80;;;;;;;;;;5054293;28;20236;-53
2023/04/16 03:16:41;;;;;;;19.87;17.87;;;;;;;;;;5033327;28;20235;-52
2023/04/16 03:19:08;;;;;;;23.03;18.80;;;;;;;;;;5042355;28;20250;-53
2023/04/16 03:21:36;;;;;;;23.30;19.83;;;;;;;;;;5055664;28;20234;-52
2023/04/16 03:24:03;;;;;;;20.67;17.33;;;;;;;;;;5059604;28;20248;-52
2023/04/16 03:26:30;;;;;;;20.10;17.33;;;;;;;;;;5060700;28;20238;-52
2023/04/16 03:28:57;;;;;;;21.77;18.73;;;;;;;;;;5045386;28;20239;-52
2023/04/16 03:31:24;;;;;;;22.90;20.00;;;;;;;;;;5051534;28;20238;-52
2023/04/16 03:33:51;;;;;;;20.17;17.90;;;;;;;;;;5057945;28;20231;-53
2023/04/16 03:36:18;;;;;;;20.00;16.93;;;;;;;;;;5049954;28;20231;-52
2023/04/16 03:38:46;;;;;;;23.33;16.67;;;;;;;;;;5052001;28;20231;-53
2023/04/16 03:41:13;;;;;;;23.57;18.17;;;;;;;;;;5053399;28;20228;-52
2023/04/16 03:43:40;;;;;;;17.63;15.83;;;;;;;;;;5044801;28;20235;-52
2023/04/16 03:46:07;;;;;;;19.77;17.47;;;;;;;;;;5049908;28;20235;-51
2023/04/16 03:48:33;;;;;;;17.90;16.03;;;;;;;;;;5050734;28;20235;-52
2023/04/16 03:51:00;;;;;;;20.03;15.57;;;;;;;;;;5050325;28;20246;-52
2023/04/16 03:53:27;;;;;;;17.07;15.23;;;;;;;;;;5047606;28;20326;-52
2023/04/16 03:55:55;;;;;;;16.10;14.40;;;;;;;;;;5047019;28;20240;-53
2023/04/16 03:58:22;;;;;;;16.23;14.53;;;;;;;;;;5038908;28;20243;-52
2023/04/16 04:00:50;;;;;;;19.10;15.93;;;;;;;;;;5036963;28;20238;-52
2023/04/16 04:03:17;;;;;;;16.63;14.43;;;;;;;;;;5050064;28;20240;-52
2023/04/16 04:05:44;;;;;;;16.27;14.57;;;;;;;;;;5042195;28;20238;-52
2023/04/16 04:08:11;;;;;;;16.13;14.43;;;;;;;;;;5060459;28;20659;-52
2023/04/16 04:10:38;;;;;;;17.60;15.77;;;;;;;;;;5041394;28;20231;-52
2023/04/16 04:13:06;;;;;;;19.97;16.93;;;;;;;;;;5050283;28;20892;-52
2023/04/16 04:15:33;;;;;;;18.80;16.30;;;;;;;;;;5035284;28;20333;-52
2023/04/16 04:18:00;;;;;;;17.87;14.87;;;;;;;;;;5052724;28;20239;-52
2023/04/16 04:20:26;;;;;;;19.93;17.17;;;;;;;;;;5058888;28;20302;-52
2023/04/16 04:22:54;;;;;;;20.80;16.87;;;;;;;;;;5048760;28;20242;-52
2023/04/16 04:25:20;;;;;;;20.10;18.10;;;;;;;;;;5051965;28;20232;-52
2023/04/16 04:27:48;;;;;;;23.80;17.90;;;;;;;;;;5046633;28;20238;-52
2023/04/16 04:30:16;;;;;;;22.23;18.33;;;;;;;;;;5054860;28;20276;-52
2023/04/16 04:32:42;;;;;;;20.83;18.27;;;;;;;;;;5039168;28;20235;-52
2023/04/16 04:35:09;;;;;;;21.37;17.10;;;;;;;;;;5060187;28;20261;-52
2023/04/16 04:37:36;;;;;;;21.90;18.20;;;;;;;;;;5056149;28;20235;-52
2023/04/16 04:40:03;;;;;;;24.83;19.83;;;;;;;;;;5050456;28;20246;-52
2023/04/16 04:42:29;;;;;;;24.50;18.77;;;;;;;;;;5047092;28;20236;-53
2023/04/16 04:44:56;;;;;;;20.37;16.60;;;;;;;;;;5043374;28;20287;-52
2023/04/16 04:47:25;;;;;;;21.40;18.67;;;;;;;;;;5044116;28;20596;-53
2023/04/16 04:49:51;;;;;;;22.57;19.00;;;;;;;;;;5037900;28;20311;-55
2023/04/16 04:52:19;;;;;;;21.63;18.50;;;;;;;;;;5039625;28;20710;-52
2023/04/16 04:54:46;;;;;;;21.33;17.57;;;;;;;;;;5033935;28;20232;-52
2023/04/16 04:57:13;;;;;;;23.57;18.13;;;;;;;;;;5040486;28;20268;-52
2023/04/16 04:59:40;;;;;;;29.43;18.50;;;;;;;;;;5036531;28;20722;-52
2023/04/16 05:02:07;;;;;;;23.43;19.30;;;;;;;;;;5042517;28;20274;-52
2023/04/16 05:04:35;;;;;;;24.73;18.57;;;;;;;;;;5044301;28;20223;-52
2023/04/16 05:07:02;;;;;;;21.30;18.17;;;;;;;;;;5036212;28;20243;-52
2023/04/16 05:09:29;;;;;;;18.53;16.40;;;;;;;;;;5039360;28;20239;-52
2023/04/16 05:11:56;;;;;;;23.07;17.83;;;;;;;;;;5046313;28;20810;-52
2023/04/16 05:14:23;;;;;;;20.43;18.23;;;;;;;;;;5048201;28;20322;-51
2023/04/16 05:16:50;;;;;;;20.33;18.13;;;;;;;;;;5063982;28;20223;-52
2023/04/16 05:19:17;;;;;;;21.63;17.87;;;;;;;;;;5047779;28;20573;-52
2023/04/16 05:21:45;;;;;;;22.60;17.83;;;;;;;;;;5047426;28;20223;-52
2023/04/16 05:24:12;;;;;;;19.23;16.30;;;;;;;;;;5042331;28;20242;-52
2023/04/16 05:26:38;;;;;;;20.23;16.63;;;;;;;;;;5053843;28;20228;-52
2023/04/16 05:29:05;;;;;;;19.80;17.17;;;;;;;;;;5053600;28;20290;-52
2023/04/16 05:31:32;;;;;;;21.67;16.27;;;;;;;;;;5058518;28;20736;-52
2023/04/16 05:33:59;;;;;;;21.23;17.23;;;;;;;;;;5057560;28;20698;-52
2023/04/16 05:36:26;;;;;;;23.07;16.73;;;;;;;;;;5062922;28;20227;-52
2023/04/16 05:38:54;;;;;;;19.23;16.87;;;;;;;;;;5047447;28;20236;-52
2023/04/16 05:41:21;;;;;;;22.30;17.03;;;;;;;;;;5044613;28;20239;-54
2023/04/16 05:43:47;;;;;;;18.73;15.83;;;;;;;;;;5044320;28;20228;-52
2023/04/16 05:46:14;;;;;;;19.00;15.03;;;;;;;;;;5036748;28;20228;-53
2023/04/16 05:48:41;;;;;;;18.03;15.77;;;;;;;;;;5042702;28;20374;-52
2023/04/16 05:51:07;;;;;;;18.80;15.67;;;;;;;;;;5037047;28;20246;-51
2023/04/16 05:53:37;;;;;;;18.73;16.73;;;;;;;;;;5040314;28;20267;-52
2023/04/16 05:56:05;;;;;;;17.13;14.53;;;;;;;;;;5044474;28;21253;-52
2023/04/16 05:58:31;;;;;;;22.03;16.47;;;;;;;;;;5038990;28;20753;-52
2023/04/16 06:00:58;;;;;;;17.40;15.53;;;;;;;;;;5048332;28;20247;-51
2023/04/16 06:03:25;;;;;;;18.27;16.23;;;;;;;;;;5046031;28;20253;-52
2023/04/16 06:05:51;;;;;;;18.13;15.03;;;;;;;;;;5043616;28;20239;-52
2023/04/16 06:08:18;;;;;;;17.43;15.07;;;;;;;;;;5044530;28;20251;-51
2023/04/16 06:10:46;;;;;;;21.67;15.63;;;;;;;;;;5043908;28;20232;-52
2023/04/16 06:13:14;;;;;;;16.03;14.30;;;;;;;;;;5054548;28;20267;-51
2023/04/16 06:15:40;;;;;;;17.13;15.33;;;;;;;;;;5057627;28;20227;-52
2023/04/16 06:18:07;;;;;;;20.30;15.07;;;;;;;;;;5053749;28;20243;-52
2023/04/16 06:20:34;;;;;;;16.67;14.83;;;;;;;;;;5039160;28;20277;-51
2023/04/16 06:23:01;;;;;;;16.50;14.80;;;;;;;;;;5040383;28;20277;-52
2023/04/16 06:25:28;;;;;;;16.50;14.70;;;;;;;;;;5046793;28;20318;-52
2023/04/16 06:27:55;;;;;;;19.03;15.00;;;;;;;;;;5043998;28;20239;-52
2023/04/16 06:30:22;;;;;;;16.87;14.20;;;;;;;;;;5042887;28;20236;-57
2023/04/16 06:32:49;;;;;;;17.17;13.63;;;;;;;;;;5035826;28;20232;-53
2023/04/16 06:35:18;;;;;;;19.73;17.03;;;;;;;;;;5036242;28;20228;-53
2023/04/16 06:37:45;;;;;;;20.10;16.20;;;;;;;;;;5036268;28;20236;-53
2023/04/16 06:40:12;;;;;;;19.77;15.10;;;;;;;;;;5042482;28;20227;-52
2023/04/16 06:42:39;;;;;;;18.17;15.67;;;;;;;;;;5053644;28;20235;-53
2023/04/16 06:45:07;;;;;;;20.57;16.43;;;;;;;;;;5036917;28;20231;-53
2023/04/16 06:47:34;;;;;;;19.27;16.63;;;;;;;;;;5023775;28;20260;-52
2023/04/16 06:50:01;;;;;;;17.13;15.33;;;;;;;;;;5036790;28;20231;-52
2023/04/16 06:52:28;;;;;;;18.53;16.03;;;;;;;;;;5040803;28;20238;-53
2023/04/16 06:54:55;;;;;;;21.53;17.13;;;;;;;;;;5044662;28;20259;-53
2023/04/16 06:57:22;;;;;;;19.60;16.60;;;;;;;;;;5044751;28;20290;-53
2023/04/16 06:59:48;;;;;;;18.83;16.03;;;;;;;;;;5043655;28;20232;-53
2023/04/16 07:02:15;;;;;;;18.90;16.67;;;;;;;;;;5043487;28;20242;-53
2023/04/16 07:04:43;;;;;;;17.37;15.33;;;;;;;;;;5039875;28;20236;-52
2023/04/16 07:07:09;;;;;;;18.50;15.53;;;;;;;;;;5041378;28;20327;-53
2023/04/16 07:09:36;;;;;;;20.90;16.77;;;;;;;;;;5043815;28;20228;-53
2023/04/16 07:12:03;;;;;;;19.30;15.57;;;;;;;;;;5044182;28;20322;-53
2023/04/16 07:14:29;;;;;;;19.27;17.20;;;;;;;;;;5043863;28;20301;-52
2023/04/16 07:16:56;;;;;;;21.43;16.30;;;;;;;;;;5042025;28;20291;-52
2023/04/16 07:19:23;;;;;;;22.07;17.27;;;;;;;;;;5035653;28;20220;-53
2023/04/16 07:21:51;;;;;;;19.13;16.17;;;;;;;;;;5039514;28;20307;-53
2023/04/16 07:24:18;;;;;;;18.20;16.27;;;;;;;;;;5037306;28;20239;-53
2023/04/16 07:26:45;;;;;;;20.80;16.70;;;;;;;;;;5042199;28;20231;-53
2023/04/16 07:29:12;;;;;;;18.57;15.70;;;;;;;;;;5042823;28;20235;-53
2023/04/16 07:31:38;;;;;;;19.33;16.37;;;;;;;;;;5037797;28;20232;-52
2023/04/16 07:34:05;;;;;;;19.13;16.83;;;;;;;;;;5036573;28;20232;-53
2023/04/16 07:36:31;;;;;;;21.83;16.13;;;;;;;;;;5038529;28;20235;-53
2023/04/16 07:38:59;;;;;;;18.07;16.13;;;;;;;;;;5038738;28;20251;-53
2023/04/16 07:41:25;;;;;;;20.57;16.93;;;;;;;;;;5037364;28;20231;-55
2023/04/16 07:43:52;;;;;;;18.80;16.97;;;;;;;;;;5047513;28;20231;-54
2023/04/16 07:46:18;;;;;;;18.90;15.70;;;;;;;;;;5047791;28;20236;-53
2023/04/16 07:48:45;;;;;;;20.87;16.60;;;;;;;;;;5046169;28;20240;-53
2023/04/16 07:51:11;;;;;;;17.43;15.53;;;;;;;;;;5045810;28;20255;-53
2023/04/16 07:53:38;;;;;;;20.00;15.93;;;;;;;;;;5041394;28;20323;-53
2023/04/16 07:56:06;;;;;;;18.40;16.43;;;;;;;;;;5045920;28;20241;-53
2023/04/16 07:58:32;;;;;;;18.83;16.23;;;;;;;;;;5033866;28;20553;-53
2023/04/16 08:00:58;;;;;;;20.57;15.60;;;;;;;;;;5038374;28;20239;-53
2023/04/16 08:03:25;;;;;;;20.67;15.70;;;;;;;;;;5041950;28;20232;-53
2023/04/16 08:05:51;;;;;;;18.77;14.70;;;;;;;;;;5043031;28;20310;-53
2023/04/16 08:08:18;;;;;;;17.20;14.13;;;;;;;;;;5044854;28;20324;-54
2023/04/16 08:10:44;;;;;;;18.13;15.10;;;;;;;;;;5029303;28;20323;-53
2023/04/16 08:13:12;;;;;;;19.00;15.07;;;;;;;;;;5044486;28;20246;-54
2023/04/16 08:15:38;;;;;;;17.43;14.50;;;;;;;;;;5047102;28;20275;-53
2023/04/16 08:18:06;;;;;;;20.30;14.40;;;;;;;;;;5036413;28;20744;-53
2023/04/16 08:20:33;;;;;;;18.37;14.33;;;;;;;;;;5038295;28;20224;-52
2023/04/16 08:22:59;;;;;;;20.77;14.23;;;;;;;;;;5043800;28;20615;-54
2023/04/16 08:25:26;;;;;;;22.33;15.60;;;;;;;;;;5056411;28;20242;-53
2023/04/16 08:27:53;;;;;;;19.00;14.70;;;;;;;;;;5040146;28;20247;-52
2023/04/16 08:30:21;;;;;;;18.20;14.23;;;;;;;;;;5037685;28;20246;-54
2023/04/16 08:32:48;;;;;;;18.97;14.33;;;;;;;;;;5042123;28;20259;-52
2023/04/16 08:35:15;;;;;;;21.47;16.10;;;;;;;;;;5047536;28;20297;-51
2023/04/16 08:37:41;;;;;;;16.53;13.83;;;;;;;;;;5046541;28;20247;-52
2023/04/16 08:40:08;;;;;;;18.47;13.67;;;;;;;;;;5046542;28;20257;-52
2023/04/16 08:42:39;;;;;;;17.93;15.27;;;;;;;;;;5048415;28;20306;-52
2023/04/16 08:45:08;;;;;;;19.10;14.97;;;;;;;;;;5039914;28;20247;-51
2023/04/16 08:47:36;;;;;;;17.60;14.20;;;;;;;;;;5047248;28;20307;-54
2023/04/16 08:50:05;;;;;;;16.53;13.90;;;;;;;;;;5046230;28;20727;-53
2023/04/16 08:52:31;;;;;;;15.80;14.20;;;;;;;;;;5049734;28;20223;-53
2023/04/16 08:55:03;;;;;;;18.43;14.73;;;;;;;;;;5048168;28;20761;-53
2023/04/16 08:57:33;;;;;;;16.70;14.80;;;;;;;;;;5039143;28;20710;-53
2023/04/16 09:00:00;;;;;;;17.47;14.47;;;;;;;;;;5042818;28;20330;-53
2023/04/16 09:02:26;;;;;;;15.07;13.47;;;;;;;;;;5042329;28;20228;-54
2023/04/16 09:04:55;;;;;;;14.90;13.20;;;;;;;;;;5048199;28;20246;-53
2023/04/16 09:07:22;;;;;;;18.83;15.57;;;;;;;;;;5051273;28;20268;-53
2023/04/16 09:09:48;;;;;;;16.30;14.67;;;;;;;;;;5050850;28;20321;-53
2023/04/16 09:12:15;;;;;;;16.47;13.67;;;;;;;;;;5040002;28;20238;-53
2023/04/16 09:14:42;;;;;;;16.53;13.57;;;;;;;;;;5043413;28;20227;-54
2023/04/16 09:17:08;;;;;;;15.27;13.67;;;;;;;;;;5044124;28;20908;-54
2023/04/16 09:19:35;;;;;;;17.07;13.97;;;;;;;;;;5042175;28;20319;-54
2023/04/16 09:22:03;;;;;;;14.33;12.83;;;;;;;;;;5047683;28;20231;-54
2023/04/16 09:24:29;;;;;;;15.73;14.17;;;;;;;;;;5046838;28;20246;-55
2023/04/16 09:26:56;;;;;;;16.70;14.67;;;;;;;;;;5040292;28;20238;-54
2023/04/16 09:29:33;;;;;;;15.27;13.67;;;;;;;;;;5041302;28;20260;-55
2023/04/16 09:32:01;;;;;;;17.30;15.37;;;;;;;;;;5045464;28;20232;-54
2023/04/16 09:34:27;;;;;;;17.97;16.07;;;;;;;;;;5039986;28;20240;-54
2023/04/16 09:36:54;;;;;;;18.93;15.90;;;;;;;;;;5039893;28;20267;-54
2023/04/16 09:39:23;;;;;;;16.10;14.23;;;;;;;;;;5042446;28;20232;-54
2023/04/16 09:41:51;;;;;;;17.17;14.43;;;;;;;;;;5037853;28;20275;-54
2023/04/16 09:44:17;;;;;;;15.90;14.20;;;;;;;;;;5035631;28;20256;-54
2023/04/16 09:46:44;;;;;;;15.87;13.40;;;;;;;;;;5037284;28;20249;-54
2023/04/16 09:49:10;;;;;;;15.23;13.23;;;;;;;;;;5037856;28;20322;-54
2023/04/16 09:51:37;;;;;;;17.90;14.13;;;;;;;;;;5046053;28;20239;-54
2023/04/16 09:54:04;;;;;;;17.90;16.00;;;;;;;;;;5047125;28;20246;-54
2023/04/16 09:56:32;;;;;;;20.77;16.30;;;;;;;;;;5042246;28;20362;-53
2023/04/16 09:59:02;;;;;;;17.40;14.63;;;;;;;;;;5045927;28;20242;-57
2023/04/16 10:01:30;;;;;;;21.90;16.60;;;;;;;;;;5043439;28;20240;-52
2023/04/16 10:03:58;;;;;;;20.43;16.93;;;;;;;;;;5050088;28;20241;-52
2023/04/16 10:06:26;;;;;;;17.53;15.33;;;;;;;;;;5043972;28;20322;-52
2023/04/16 10:08:55;;;;;;;17.67;15.30;;;;;;;;;;5046394;28;20227;-52
2023/04/16 10:11:22;;;;;;;22.27;16.63;;;;;;;;;;5050361;28;20227;-52
2023/04/16 10:13:50;;;;;;;19.17;16.97;;;;;;;;;;5041228;28;20228;-53
2023/04/16 10:16:17;;;;;;;19.67;17.03;;;;;;;;;;5043858;28;20314;-53
2023/04/16 10:18:44;;;;;;;18.10;15.87;;;;;;;;;;5044103;28;20236;-52
2023/04/16 10:21:11;;;;;;;19.80;17.10;;;;;;;;;;5044916;28;20232;-52
2023/04/16 10:23:38;;;;;;;19.70;16.97;;;;;;;;;;5039796;28;20298;-52
2023/04/16 10:26:05;;;;;;;21.10;17.80;;;;;;;;;;5044726;28;20227;-52
2023/04/16 10:28:34;;;;;;;19.37;17.17;;;;;;;;;;5046084;28;20326;-53
2023/04/16 10:31:02;;;;;;;23.23;17.50;;;;;;;;;;5044255;28;20228;-53
2023/04/16 10:33:29;;;;;;;25.13;19.37;;;;;;;;;;5044591;28;20234;-53
2023/04/16 10:36:07;;;;;;;19.87;16.43;;;;;;;;;;5041579;28;20240;-52
2023/04/16 10:38:34;;;;;;;22.20;18.30;;;;;;;;;;5037027;28;20239;-53
2023/04/16 10:41:02;;;;;;;22.70;18.73;;;;;;;;;;5044935;28;20385;-52
2023/04/16 10:43:28;;;;;;;21.73;17.03;;;;;;;;;;5047074;28;20228;-53
2023/04/16 10:45:55;;;;;;;20.67;18.47;;;;;;;;;;5042452;28;20239;-52
2023/04/16 10:48:23;;;;;;;20.83;18.67;;;;;;;;;;5040614;28;20777;-52
2023/04/16 10:50:57;;;;;;;23.60;19.30;;;;;;;;;;5045969;28;20686;-52
2023/04/16 10:53:24;;;;;;;22.30;17.87;;;;;;;;;;5043422;28;20297;-53
2023/04/16 10:56:11;;;;;;;19.27;16.40;;;;;;;;;;5045476;28;20730;-52
2023/04/16 10:58:37;;;;;;;20.43;16.47;;;;;;;;;;5046500;28;20717;-52
2023/04/16 11:01:07;;;;;;;19.70;16.87;;;;;;;;;;5045213;28;20248;-52
2023/04/16 11:03:35;;;;;;;18.90;16.97;;;;;;;;;;5050272;28;20242;-52
2023/04/16 11:06:15;;;;;;;21.83;17.47;;;;;;;;;;5041513;28;20260;-52
2023/04/16 11:08:42;;;;;;;20.63;16.57;;;;;;;;;;5045606;28;20302;-52
2023/04/16 11:11:09;;;;;;;18.47;16.07;;;;;;;;;;5045544;28;20258;-52
2023/04/16 11:13:36;;;;;;;19.20;17.10;;;;;;;;;;5047623;28;20232;-52
2023/04/16 11:16:02;;;;;;;18.93;16.70;;;;;;;;;;5044012;28;20235;-53
2023/04/16 11:18:29;;;;;;;19.07;15.37;;;;;;;;;;5045744;28;20268;-53
2023/04/16 11:20:57;;;;;;;16.57;14.87;;;;;;;;;;5040915;28;20709;-53
2023/04/16 11:23:23;;;;;;;16.07;13.93;;;;;;;;;;5046626;28;20325;-53
2023/04/16 11:25:54;;;;;;;15.13;13.53;;;;;;;;;;5046461;28;20231;-52
2023/04/16 11:28:21;;;;;;;16.80;15.10;;;;;;;;;;5034652;28;20232;-52
2023/04/16 11:30:47;;;;;;;15.07;13.20;;;;;;;;;;5036998;28;20940;-53
2023/04/16 11:33:13;;;;;;;16.63;14.87;;;;;;;;;;5042793;28;20243;-53
2023/04/16 11:35:42;;;;;;;17.00;15.30;;;;;;;;;;5041577;28;20234;-52
2023/04/16 11:38:09;;;;;;;14.77;13.27;;;;;;;;;;5049271;28;20240;-52
2023/04/16 11:40:36;;;;;;;14.13;12.67;;;;;;;;;;5048286;28;20257;-53
2023/04/16 11:43:03;;;;;;;15.47;12.23;;;;;;;;;;5046853;28;20236;-52
2023/04/16 11:45:29;;;;;;;13.70;12.40;;;;;;;;;;5056257;28;21144;-53
2023/04/16 11:47:56;;;;;;;11.37;10.37;;;;;;;;;;5055666;28;20621;-52
2023/04/16 11:50:23;;;;;;;13.55;12.15;;;;;;;;;;5038883;28;20743;-52
2023/04/16 11:52:50;;;;;;;13.50;12.10;;;;;;;;;;5045132;28;20227;-52
2023/04/16 11:55:18;;;;;;;13.20;11.80;;;;;;;;;;5047160;28;20227;-52
2023/04/16 11:57:45;;;;;;;14.53;13.13;;;;;;;;;;5039869;28;20236;-52
2023/04/16 12:00:12;;;;;;;13.17;11.23;;;;;;;;;;5044897;28;20246;-52
2023/04/16 12:02:39;;;;;;;12.90;11.63;;;;;;;;;;5043023;28;20224;-52
2023/04/16 12:05:07;;;;;;;12.57;11.27;;;;;;;;;;5045049;28;20229;-52
2023/04/16 12:07:43;;;;;;;16.80;12.67;;;;;;;;;;5046318;28;20255;-52
2023/04/16 12:10:10;;;;;;;11.43;10.33;;;;;;;;;;5043527;28;20231;-52
2023/04/16 12:12:37;;;;;;;11.30;10.27;;;;;;;;;;5053497;28;20238;-52
2023/04/16 12:15:04;;;;;;;10.48;9.50;;;;;;;;;;5054609;28;20230;-52
2023/04/16 12:17:31;;;;;;;11.80;10.57;;;;;;;;;;5050209;28;21965;-53
2023/04/16 12:19:58;;;;;;;13.57;10.65;;;;;;;;;;5047849;28;20261;-52
2023/04/16 12:22:28;;;;;;;10.60;9.60;;;;;;;;;;5050734;28;20318;-52
2023/04/16 12:24:58;;;;;;;10.63;9.67;;;;;;;;;;5050183;28;20238;-53
2023/04/16 12:27:27;;;;;;;10.67;9.67;;;;;;;;;;5048052;28;20335;-53
2023/04/16 12:30:05;;;;;;;11.33;10.13;;;;;;;;;;5046819;28;20248;-52
2023/04/16 12:32:31;;;;;;;11.83;10.63;;;;;;;;;;5043598;28;20236;-51
2023/04/16 12:34:58;;;;;;;8.70;7.90;;;;;;;;;;5044861;28;20231;-52
2023/04/16 12:37:25;;;;;;;10.00;9.10;;;;;;;;;;5053389;28;20243;-52
2023/04/16 12:39:51;;;;;;;10.07;8.87;;;;;;;;;;5046199;28;20235;-52
2023/04/16 12:42:18;;;;;;;10.13;9.13;;;;;;;;;;5049682;28;20246;-52
2023/04/16 12:44:44;;;;;;;10.63;9.53;;;;;;;;;;5045463;28;20255;-52
2023/04/16 12:47:12;;;;;;;9.40;8.60;;;;;;;;;;5045331;28;20244;-53
2023/04/16 12:49:38;;;;;;;10.65;9.60;;;;;;;;;;5040883;28;20302;-52
2023/04/16 12:52:05;;;;;;;10.37;9.30;;;;;;;;;;5046638;28;20239;-52
2023/04/16 12:54:31;;;;;;;9.53;8.63;;;;;;;;;;5047338;28;20660;-53
2023/04/16 12:56:58;;;;;;;9.70;8.80;;;;;;;;;;5043419;28;20235;-52
2023/04/16 12:59:24;;;;;;;10.03;9.10;;;;;;;;;;5043753;28;20314;-53
2023/04/16 13:01:50;;;;;;;12.93;10.53;;;;;;;;;;5039675;28;20233;-52
2023/04/16 13:04:18;;;;;;;10.80;9.33;;;;;;;;;;5045595;28;20236;-52
2023/04/16 13:06:45;;;;;;;10.43;9.13;;;;;;;;;;5041411;28;20234;-52
2023/04/16 13:09:11;;;;;;;9.87;8.87;;;;;;;;;;5043889;28;20248;-52
2023/04/16 13:11:38;;;;;;;9.97;8.97;;;;;;;;;;5040634;28;20266;-52
2023/04/16 13:14:05;;;;;;;9.73;8.87;;;;;;;;;;5043692;28;20229;-52
2023/04/16 13:16:31;;;;;;;11.03;9.87;;;;;;;;;;5042580;28;20236;-52
2023/04/16 13:18:57;;;;;;;10.00;9.00;;;;;;;;;;5041287;28;20244;-52
2023/04/16 13:21:26;;;;;;;9.37;8.37;;;;;;;;;;5041616;28;20684;-56
2023/04/16 13:23:53;;;;;;;9.27;8.37;;;;;;;;;;5040289;28;20765;-52
2023/04/16 13:26:20;;;;;;;9.33;8.40;;;;;;;;;;5039902;28;20725;-52
2023/04/16 13:28:46;;;;;;;8.93;8.07;;;;;;;;;;5038363;28;20243;-52
2023/04/16 13:31:14;;;;;;;8.97;8.07;;;;;;;;;;5037210;28;20236;-51
2023/04/16 13:33:41;;;;;;;10.03;9.03;;;;;;;;;;5040724;28;20258;-52
2023/04/16 13:36:07;;;;;;;8.07;7.27;;;;;;;;;;5041059;28;20311;-52
2023/04/16 13:38:36;;;;;;;9.07;8.17;;;;;;;;;;5042433;28;20243;-53
2023/04/16 13:41:03;;;;;;;10.37;9.23;;;;;;;;;;5038364;28;20236;-53
2023/04/16 13:43:30;;;;;;;8.23;7.35;;;;;;;;;;5048556;28;20714;-51
2023/04/16 13:45:56;;;;;;;8.97;8.17;;;;;;;;;;5047248;28;20319;-52
2023/04/16 13:48:23;;;;;;;10.30;9.23;;;;;;;;;;5039528;28;20327;-52
2023/04/16 13:50:49;;;;;;;9.55;8.57;;;;;;;;;;5041212;28;20243;-52
2023/04/16 13:53:15;;;;;;;10.80;9.70;;;;;;;;;;5044325;28;20805;-52
2023/04/16 13:55:43;;;;;;;10.63;9.52;;;;;;;;;;5039752;28;20267;-52
2023/04/16 13:58:10;;;;;;;9.65;8.75;;;;;;;;;;5044923;28;20331;-52
2023/04/16 14:00:36;;;;;;;11.10;9.95;;;;;;;;;;5039767;28;20698;-52
2023/04/16 14:03:04;;;;;;;10.80;9.25;;;;;;;;;;5041086;28;20744;-52
2023/04/16 14:05:31;;;;;;;14.57;11.07;;;;;;;;;;5044010;28;20772;-51
2023/04/16 14:07:57;;;;;;;11.83;10.13;;;;;;;;;;5043689;28;20239;-52
2023/04/16 14:10:23;;;;;;;10.75;9.65;;;;;;;;;;5042008;28;20714;-52
2023/04/16 14:12:51;;;;;;;10.60;9.52;;;;;;;;;;5039525;28;20705;-52
2023/04/16 14:15:18;;;;;;;8.70;7.90;;;;;;;;;;5043985;28;20236;-51
2023/04/16 14:17:44;;;;;;;8.45;7.65;;;;;;;;;;5036973;28;20254;-52